sensor_id;sensor_type;location;lat;lon;timestamp;temperature;humidity
46676;DHT22;32412;51.478;5.694;2022-12-18T00:02:14;-5.30;99.90
46676;DHT22;32412;51.478;5.694;2022-12-18T00:04:39;-5.40;99.90
46676;DHT22;32412;51.478;5.694;2022-12-18T00:07:05;-5.40;99.90
46676;DHT22;32412;51.478;5.694;2022-12-18T00:09:31;-5.50;99.90
46676;DHT22;32412;51.478;5.694;2022-12-18T00:11:56;-5.50;99.90
46676;DHT22;32412;51.478;5.694;2022-12-18T00:14:22;-5.50;99.90
46676;DHT22;32412;51.478;5.694;2022-12-18T00:16:47;-5.60;99.90
46676;DHT22;32412;51.478;5.694;2022-12-18T00:19:13;-5.70;99.90
46676;DHT22;32412;51.478;5.694;2022-12-18T00:21:39;-5.80;99.90
46676;DHT22;32412;51.478;5.694;2022-12-18T00:24:05;-5.80;99.90
46676;DHT22;32412;51.478;5.694;2022-12-18T00:26:31;-5.80;99.90
46676;DHT22;32412;51.478;5.694;2022-12-18T00:29:01;-5.90;99.90
46676;DHT22;32412;51.478;5.694;2022-12-18T00:31:27;-5.90;99.90
46676;DHT22;32412;51.478;5.694;2022-12-18T00:33:56;-5.80;99.90
46676;DHT22;32412;51.478;5.694;2022-12-18T00:36:26;-5.80;99.90
46676;DHT22;32412;51.478;5.694;2022-12-18T00:38:53;-5.80;99.90
46676;DHT22;32412;51.478;5.694;2022-12-18T00:41:18;-5.70;99.90
46676;DHT22;32412;51.478;5.694;2022-12-18T00:44:03;-5.70;99.90
46676;DHT22;32412;51.478;5.694;2022-12-18T00:46:29;-5.70;99.90
46676;DHT22;32412;51.478;5.694;2022-12-18T00:48:54;-5.70;99.90
46676;DHT22;32412;51.478;5.694;2022-12-18T00:51:20;-5.80;99.90
46676;DHT22;32412;51.478;5.694;2022-12-18T00:53:45;-5.80;99.90
46676;DHT22;32412;51.478;5.694;2022-12-18T00:56:11;-5.80;99.90
46676;DHT22;32412;51.478;5.694;2022-12-18T00:58:39;-5.80;99.90
46676;DHT22;32412;51.478;5.694;2022-12-18T01:01:04;-5.80;99.90
46676;DHT22;32412;51.478;5.694;2022-12-18T01:03:30;-5.80;99.90
46676;DHT22;32412;51.478;5.694;2022-12-18T01:05:56;-5.80;99.90
46676;DHT22;32412;51.478;5.694;2022-12-18T01:08:21;-5.80;99.90
46676;DHT22;32412;51.478;5.694;2022-12-18T01:10:47;-5.80;99.90
46676;DHT22;32412;51.478;5.694;2022-12-18T01:13:12;-5.90;99.90
46676;DHT22;32412;51.478;5.694;2022-12-18T01:15:38;-5.90;99.90
46676;DHT22;32412;51.478;5.694;2022-12-18T01:18:03;-5.90;99.90
46676;DHT22;32412;51.478;5.694;2022-12-18T01:20:29;-6.00;99.90
46676;DHT22;32412;51.478;5.694;2022-12-18T01:22:54;-6.00;99.90
46676;DHT22;32412;51.478;5.694;2022-12-18T01:25:20;-6.10;99.90
46676;DHT22;32412;51.478;5.694;2022-12-18T01:27:45;-6.10;99.90
46676;DHT22;32412;51.478;5.694;2022-12-18T01:30:13;-6.10;99.90
46676;DHT22;32412;51.478;5.694;2022-12-18T01:32:39;-6.10;99.90
46676;DHT22;32412;51.478;5.694;2022-12-18T01:35:05;-6.10;99.90
46676;DHT22;32412;51.478;5.694;2022-12-18T01:37:30;-6.10;99.90
46676;DHT22;32412;51.478;5.694;2022-12-18T01:39:56;-6.20;99.90
46676;DHT22;32412;51.478;5.694;2022-12-18T01:42:21;-6.20;99.90
46676;DHT22;32412;51.478;5.694;2022-12-18T01:44:53;-6.20;99.90
46676;DHT22;32412;51.478;5.694;2022-12-18T01:47:44;-6.20;99.90
46676;DHT22;32412;51.478;5.694;2022-12-18T01:50:13;-6.20;99.90
46676;DHT22;32412;51.478;5.694;2022-12-18T01:52:40;-6.30;99.90
46676;DHT22;32412;51.478;5.694;2022-12-18T01:55:07;-6.40;99.90
46676;DHT22;32412;51.478;5.694;2022-12-18T01:57:33;-6.50;99.90
46676;DHT22;32412;51.478;5.694;2022-12-18T02:00:00;-6.50;99.90
46676;DHT22;32412;51.478;5.694;2022-12-18T02:02:27;-6.40;99.90
46676;DHT22;32412;51.478;5.694;2022-12-18T02:04:53;-6.40;99.90
46676;DHT22;32412;51.478;5.694;2022-12-18T02:13:16;-6.40;99.90
46676;DHT22;32412;51.478;5.694;2022-12-18T02:15:17;-6.50;99.90
46676;DHT22;32412;51.478;5.694;2022-12-18T02:17:48;-6.50;99.90
46676;DHT22;32412;51.478;5.694;2022-12-18T02:25:15;-6.50;99.90
46676;DHT22;32412;51.478;5.694;2022-12-18T02:27:42;-6.50;99.90
46676;DHT22;32412;51.478;5.694;2022-12-18T02:30:09;-6.50;99.90
46676;DHT22;32412;51.478;5.694;2022-12-18T02:32:37;-6.50;99.90
46676;DHT22;32412;51.478;5.694;2022-12-18T02:35:05;-6.50;99.90
46676;DHT22;32412;51.478;5.694;2022-12-18T02:37:31;-6.50;99.90
46676;DHT22;32412;51.478;5.694;2022-12-18T02:39:57;-6.50;99.90
46676;DHT22;32412;51.478;5.694;2022-12-18T02:42:24;-6.50;99.90
46676;DHT22;32412;51.478;5.694;2022-12-18T02:44:50;-6.50;99.90
46676;DHT22;32412;51.478;5.694;2022-12-18T02:47:17;-6.50;99.90
46676;DHT22;32412;51.478;5.694;2022-12-18T02:52:28;-6.60;99.90
46676;DHT22;32412;51.478;5.694;2022-12-18T03:02:48;-6.50;99.90
46676;DHT22;32412;51.478;5.694;2022-12-18T03:05:17;-6.40;99.90
46676;DHT22;32412;51.478;5.694;2022-12-18T03:07:46;-6.30;99.90
46676;DHT22;32412;51.478;5.694;2022-12-18T03:10:15;-6.30;99.90
46676;DHT22;32412;51.478;5.694;2022-12-18T03:12:52;-6.30;99.90
46676;DHT22;32412;51.478;5.694;2022-12-18T03:15:27;-6.30;99.90
46676;DHT22;32412;51.478;5.694;2022-12-18T03:18:04;-6.30;99.90
46676;DHT22;32412;51.478;5.694;2022-12-18T03:20:32;-6.30;99.90
46676;DHT22;32412;51.478;5.694;2022-12-18T03:23:00;-6.30;99.90
46676;DHT22;32412;51.478;5.694;2022-12-18T03:25:27;-6.20;99.90
46676;DHT22;32412;51.478;5.694;2022-12-18T03:27:54;-6.20;99.90
46676;DHT22;32412;51.478;5.694;2022-12-18T03:30:22;-6.20;99.90
46676;DHT22;32412;51.478;5.694;2022-12-18T03:32:52;-6.20;99.90
46676;DHT22;32412;51.478;5.694;2022-12-18T03:35:21;-6.20;99.90
46676;DHT22;32412;51.478;5.694;2022-12-18T03:37:48;-6.10;99.90
46676;DHT22;32412;51.478;5.694;2022-12-18T03:40:13;-6.10;99.90
46676;DHT22;32412;51.478;5.694;2022-12-18T03:45:09;-6.10;99.90
46676;DHT22;32412;51.478;5.694;2022-12-18T03:47:40;-6.10;99.90
46676;DHT22;32412;51.478;5.694;2022-12-18T03:52:41;-6.10;99.90
46676;DHT22;32412;51.478;5.694;2022-12-18T03:55:11;-6.00;99.90
46676;DHT22;32412;51.478;5.694;2022-12-18T03:57:37;-6.10;99.90
46676;DHT22;32412;51.478;5.694;2022-12-18T04:00:08;-6.00;99.90
46676;DHT22;32412;51.478;5.694;2022-12-18T04:02:34;-6.00;99.90
46676;DHT22;32412;51.478;5.694;2022-12-18T04:05:01;-5.90;99.90
46676;DHT22;32412;51.478;5.694;2022-12-18T04:07:29;-5.90;99.90
46676;DHT22;32412;51.478;5.694;2022-12-18T04:09:55;-5.90;99.90
46676;DHT22;32412;51.478;5.694;2022-12-18T04:12:24;-5.90;99.90
46676;DHT22;32412;51.478;5.694;2022-12-18T04:14:50;-5.90;99.90
46676;DHT22;32412;51.478;5.694;2022-12-18T04:17:15;-6.00;99.90
46676;DHT22;32412;51.478;5.694;2022-12-18T04:19:41;-6.00;99.90
46676;DHT22;32412;51.478;5.694;2022-12-18T04:22:08;-6.00;99.90
46676;DHT22;32412;51.478;5.694;2022-12-18T04:24:34;-6.00;99.90
46676;DHT22;32412;51.478;5.694;2022-12-18T04:26:59;-6.00;99.90
46676;DHT22;32412;51.478;5.694;2022-12-18T04:29:25;-5.90;99.90
46676;DHT22;32412;51.478;5.694;2022-12-18T04:31:50;-5.90;99.90
46676;DHT22;32412;51.478;5.694;2022-12-18T04:34:16;-5.90;99.90
46676;DHT22;32412;51.478;5.694;2022-12-18T04:36:41;-5.90;99.90
46676;DHT22;32412;51.478;5.694;2022-12-18T04:39:07;-6.00;99.90
46676;DHT22;32412;51.478;5.694;2022-12-18T04:41:32;-6.00;99.90
46676;DHT22;32412;51.478;5.694;2022-12-18T04:43:58;-5.90;99.90
46676;DHT22;32412;51.478;5.694;2022-12-18T04:46:23;-5.90;99.90
46676;DHT22;32412;51.478;5.694;2022-12-18T04:48:49;-5.90;99.90
46676;DHT22;32412;51.478;5.694;2022-12-18T04:51:14;-5.90;99.90
46676;DHT22;32412;51.478;5.694;2022-12-18T04:53:40;-5.90;99.90
46676;DHT22;32412;51.478;5.694;2022-12-18T04:56:06;-6.00;99.90
46676;DHT22;32412;51.478;5.694;2022-12-18T04:58:32;-6.00;99.90
46676;DHT22;32412;51.478;5.694;2022-12-18T05:00:58;-6.00;99.90
46676;DHT22;32412;51.478;5.694;2022-12-18T05:03:24;-5.90;99.90
46676;DHT22;32412;51.478;5.694;2022-12-18T05:05:50;-5.90;99.90
46676;DHT22;32412;51.478;5.694;2022-12-18T05:08:16;-5.90;99.90
46676;DHT22;32412;51.478;5.694;2022-12-18T05:10:41;-6.00;99.90
46676;DHT22;32412;51.478;5.694;2022-12-18T05:13:07;-6.10;99.90
46676;DHT22;32412;51.478;5.694;2022-12-18T05:15:32;-6.10;99.90
46676;DHT22;32412;51.478;5.694;2022-12-18T05:17:58;-6.10;99.90
46676;DHT22;32412;51.478;5.694;2022-12-18T05:20:24;-6.20;99.90
46676;DHT22;32412;51.478;5.694;2022-12-18T05:22:50;-6.30;99.90
46676;DHT22;32412;51.478;5.694;2022-12-18T05:25:16;-6.30;99.90
46676;DHT22;32412;51.478;5.694;2022-12-18T05:27:42;-6.30;99.90
46676;DHT22;32412;51.478;5.694;2022-12-18T05:30:07;-6.30;99.90
46676;DHT22;32412;51.478;5.694;2022-12-18T05:32:33;-6.40;99.90
46676;DHT22;32412;51.478;5.694;2022-12-18T05:34:59;-6.40;99.90
46676;DHT22;32412;51.478;5.694;2022-12-18T05:37:24;-6.40;99.90
46676;DHT22;32412;51.478;5.694;2022-12-18T05:39:50;-6.40;99.90
46676;DHT22;32412;51.478;5.694;2022-12-18T05:42:15;-6.40;99.90
46676;DHT22;32412;51.478;5.694;2022-12-18T05:44:41;-6.40;99.90
46676;DHT22;32412;51.478;5.694;2022-12-18T05:47:06;-6.40;99.90
46676;DHT22;32412;51.478;5.694;2022-12-18T05:49:32;-6.30;99.90
46676;DHT22;32412;51.478;5.694;2022-12-18T05:51:57;-6.30;99.90
46676;DHT22;32412;51.478;5.694;2022-12-18T05:54:23;-6.30;99.90
46676;DHT22;32412;51.478;5.694;2022-12-18T05:56:48;-6.30;99.90
46676;DHT22;32412;51.478;5.694;2022-12-18T05:59:14;-6.20;99.90
46676;DHT22;32412;51.478;5.694;2022-12-18T06:01:40;-6.10;99.90
46676;DHT22;32412;51.478;5.694;2022-12-18T06:04:05;-6.10;99.90
46676;DHT22;32412;51.478;5.694;2022-12-18T06:06:31;-6.00;99.90
46676;DHT22;32412;51.478;5.694;2022-12-18T06:08:57;-6.00;99.90
46676;DHT22;32412;51.478;5.694;2022-12-18T06:11:23;-5.90;99.90
46676;DHT22;32412;51.478;5.694;2022-12-18T06:13:50;-5.90;99.90
46676;DHT22;32412;51.478;5.694;2022-12-18T06:16:16;-5.90;99.90
46676;DHT22;32412;51.478;5.694;2022-12-18T06:18:41;-5.90;99.90
46676;DHT22;32412;51.478;5.694;2022-12-18T06:21:07;-5.80;99.90
46676;DHT22;32412;51.478;5.694;2022-12-18T06:23:32;-5.80;99.90
46676;DHT22;32412;51.478;5.694;2022-12-18T06:25:58;-5.80;99.90
46676;DHT22;32412;51.478;5.694;2022-12-18T06:28:24;-5.80;99.90
46676;DHT22;32412;51.478;5.694;2022-12-18T06:30:50;-5.80;99.90
46676;DHT22;32412;51.478;5.694;2022-12-18T06:33:16;-5.80;99.90
46676;DHT22;32412;51.478;5.694;2022-12-18T06:35:42;-5.80;99.90
46676;DHT22;32412;51.478;5.694;2022-12-18T06:38:07;-5.80;99.90
46676;DHT22;32412;51.478;5.694;2022-12-18T06:40:33;-5.80;99.90
46676;DHT22;32412;51.478;5.694;2022-12-18T06:42:58;-5.80;99.90
46676;DHT22;32412;51.478;5.694;2022-12-18T06:45:24;-5.80;99.90
46676;DHT22;32412;51.478;5.694;2022-12-18T06:47:50;-5.80;99.90
46676;DHT22;32412;51.478;5.694;2022-12-18T06:50:16;-5.80;99.90
46676;DHT22;32412;51.478;5.694;2022-12-18T06:52:41;-5.90;99.90
46676;DHT22;32412;51.478;5.694;2022-12-18T06:55:09;-6.00;99.90
46676;DHT22;32412;51.478;5.694;2022-12-18T06:57:35;-6.10;99.90
46676;DHT22;32412;51.478;5.694;2022-12-18T07:00:01;-6.00;99.90
46676;DHT22;32412;51.478;5.694;2022-12-18T07:02:26;-6.00;99.90
46676;DHT22;32412;51.478;5.694;2022-12-18T07:04:52;-6.10;99.90
46676;DHT22;32412;51.478;5.694;2022-12-18T07:07:17;-6.10;99.90
46676;DHT22;32412;51.478;5.694;2022-12-18T07:09:43;-6.10;99.90
46676;DHT22;32412;51.478;5.694;2022-12-18T07:12:08;-6.20;99.90
46676;DHT22;32412;51.478;5.694;2022-12-18T07:14:34;-6.20;99.90
46676;DHT22;32412;51.478;5.694;2022-12-18T07:16:59;-6.20;99.90
46676;DHT22;32412;51.478;5.694;2022-12-18T07:19:25;-6.30;99.90
46676;DHT22;32412;51.478;5.694;2022-12-18T07:21:51;-6.30;99.90
46676;DHT22;32412;51.478;5.694;2022-12-18T07:24:16;-6.30;99.90
46676;DHT22;32412;51.478;5.694;2022-12-18T07:26:42;-6.20;99.90
46676;DHT22;32412;51.478;5.694;2022-12-18T07:29:07;-6.30;99.90
46676;DHT22;32412;51.478;5.694;2022-12-18T07:31:33;-6.30;99.90
46676;DHT22;32412;51.478;5.694;2022-12-18T07:33:59;-6.30;99.90
46676;DHT22;32412;51.478;5.694;2022-12-18T07:36:24;-6.30;99.90
46676;DHT22;32412;51.478;5.694;2022-12-18T07:38:50;-6.30;99.90
46676;DHT22;32412;51.478;5.694;2022-12-18T07:41:16;-6.20;99.90
46676;DHT22;32412;51.478;5.694;2022-12-18T07:43:42;-6.20;99.90
46676;DHT22;32412;51.478;5.694;2022-12-18T07:46:08;-6.10;99.90
46676;DHT22;32412;51.478;5.694;2022-12-18T07:48:33;-6.10;99.90
46676;DHT22;32412;51.478;5.694;2022-12-18T07:51:03;-6.00;99.90
46676;DHT22;32412;51.478;5.694;2022-12-18T07:53:29;-6.00;99.90
46676;DHT22;32412;51.478;5.694;2022-12-18T07:56:02;-5.90;99.90
46676;DHT22;32412;51.478;5.694;2022-12-18T07:58:29;-5.80;99.90
46676;DHT22;32412;51.478;5.694;2022-12-18T08:01:01;-5.70;99.90
46676;DHT22;32412;51.478;5.694;2022-12-18T08:03:27;-5.60;99.90
46676;DHT22;32412;51.478;5.694;2022-12-18T08:05:52;-5.60;99.90
46676;DHT22;32412;51.478;5.694;2022-12-18T08:08:23;-5.50;99.90
46676;DHT22;32412;51.478;5.694;2022-12-18T08:10:48;-5.40;99.90
46676;DHT22;32412;51.478;5.694;2022-12-18T08:13:14;-5.40;99.90
46676;DHT22;32412;51.478;5.694;2022-12-18T08:15:39;-5.30;99.90
46676;DHT22;32412;51.478;5.694;2022-12-18T08:18:05;-5.20;99.90
46676;DHT22;32412;51.478;5.694;2022-12-18T08:20:30;-5.20;99.90
46676;DHT22;32412;51.478;5.694;2022-12-18T08:22:56;-5.10;99.90
46676;DHT22;32412;51.478;5.694;2022-12-18T08:25:23;-5.00;99.90
46676;DHT22;32412;51.478;5.694;2022-12-18T08:27:48;-5.00;99.90
46676;DHT22;32412;51.478;5.694;2022-12-18T08:30:14;-4.90;99.90
46676;DHT22;32412;51.478;5.694;2022-12-18T08:32:39;-4.90;99.90
46676;DHT22;32412;51.478;5.694;2022-12-18T08:35:05;-4.80;99.90
46676;DHT22;32412;51.478;5.694;2022-12-18T08:37:31;-4.70;99.90
46676;DHT22;32412;51.478;5.694;2022-12-18T08:39:56;-4.60;99.90
46676;DHT22;32412;51.478;5.694;2022-12-18T08:42:22;-4.60;99.90
46676;DHT22;32412;51.478;5.694;2022-12-18T08:45:25;-4.50;99.90
46676;DHT22;32412;51.478;5.694;2022-12-18T08:47:51;-4.50;99.90
46676;DHT22;32412;51.478;5.694;2022-12-18T08:50:17;-4.40;99.90
46676;DHT22;32412;51.478;5.694;2022-12-18T08:52:42;-4.30;99.90
46676;DHT22;32412;51.478;5.694;2022-12-18T08:55:08;-4.30;99.90
46676;DHT22;32412;51.478;5.694;2022-12-18T08:57:34;-4.20;99.90
46676;DHT22;32412;51.478;5.694;2022-12-18T08:59:59;-4.20;99.90
46676;DHT22;32412;51.478;5.694;2022-12-18T09:02:25;-4.10;99.90
46676;DHT22;32412;51.478;5.694;2022-12-18T09:04:50;-4.00;99.90
46676;DHT22;32412;51.478;5.694;2022-12-18T09:07:16;-3.80;99.90
46676;DHT22;32412;51.478;5.694;2022-12-18T09:09:41;-3.70;99.90
46676;DHT22;32412;51.478;5.694;2022-12-18T09:12:07;-3.70;99.90
46676;DHT22;32412;51.478;5.694;2022-12-18T09:14:32;-3.60;99.90
46676;DHT22;32412;51.478;5.694;2022-12-18T09:16:58;-3.50;99.90
46676;DHT22;32412;51.478;5.694;2022-12-18T09:19:23;-3.40;99.90
46676;DHT22;32412;51.478;5.694;2022-12-18T09:21:49;-3.30;99.90
46676;DHT22;32412;51.478;5.694;2022-12-18T09:24:14;-3.20;99.90
46676;DHT22;32412;51.478;5.694;2022-12-18T09:26:40;-3.10;99.90
46676;DHT22;32412;51.478;5.694;2022-12-18T09:29:06;-3.10;99.90
46676;DHT22;32412;51.478;5.694;2022-12-18T09:31:32;-3.00;99.90
46676;DHT22;32412;51.478;5.694;2022-12-18T09:33:58;-2.90;99.90
46676;DHT22;32412;51.478;5.694;2022-12-18T09:36:24;-2.90;99.90
46676;DHT22;32412;51.478;5.694;2022-12-18T09:38:49;-2.80;99.90
46676;DHT22;32412;51.478;5.694;2022-12-18T09:41:17;-2.70;99.90
46676;DHT22;32412;51.478;5.694;2022-12-18T09:43:52;-2.60;99.90
46676;DHT22;32412;51.478;5.694;2022-12-18T09:46:23;-2.60;99.90
46676;DHT22;32412;51.478;5.694;2022-12-18T09:48:51;-2.50;99.90
46676;DHT22;32412;51.478;5.694;2022-12-18T09:51:25;-2.50;99.90
46676;DHT22;32412;51.478;5.694;2022-12-18T09:53:57;-2.40;99.90
46676;DHT22;32412;51.478;5.694;2022-12-18T09:56:24;-2.30;99.90
46676;DHT22;32412;51.478;5.694;2022-12-18T09:58:58;-2.30;99.90
46676;DHT22;32412;51.478;5.694;2022-12-18T10:01:24;-2.20;99.90
46676;DHT22;32412;51.478;5.694;2022-12-18T10:03:50;-2.10;99.90
46676;DHT22;32412;51.478;5.694;2022-12-18T10:06:18;-2.00;99.90
46676;DHT22;32412;51.478;5.694;2022-12-18T10:08:49;-1.90;99.90
46676;DHT22;32412;51.478;5.694;2022-12-18T10:13:46;-1.60;99.90
46676;DHT22;32412;51.478;5.694;2022-12-18T10:16:19;-1.50;99.90
46676;DHT22;32412;51.478;5.694;2022-12-18T10:21:45;-1.40;99.90
46676;DHT22;32412;51.478;5.694;2022-12-18T10:24:18;-1.30;99.90
46676;DHT22;32412;51.478;5.694;2022-12-18T10:26:46;-1.20;99.90
46676;DHT22;32412;51.478;5.694;2022-12-18T10:29:12;-1.20;99.90
46676;DHT22;32412;51.478;5.694;2022-12-18T10:31:38;-1.20;99.90
46676;DHT22;32412;51.478;5.694;2022-12-18T10:34:08;-1.30;99.90
46676;DHT22;32412;51.478;5.694;2022-12-18T10:36:34;-1.30;99.90
46676;DHT22;32412;51.478;5.694;2022-12-18T10:39:13;-1.30;99.90
46676;DHT22;32412;51.478;5.694;2022-12-18T10:41:39;-1.20;99.90
46676;DHT22;32412;51.478;5.694;2022-12-18T10:44:10;-1.20;99.90
46676;DHT22;32412;51.478;5.694;2022-12-18T10:46:36;-1.10;99.90
46676;DHT22;32412;51.478;5.694;2022-12-18T10:49:02;-1.10;99.90
46676;DHT22;32412;51.478;5.694;2022-12-18T10:51:28;-0.90;99.90
46676;DHT22;32412;51.478;5.694;2022-12-18T10:53:56;-0.90;99.90
46676;DHT22;32412;51.478;5.694;2022-12-18T10:56:22;-0.80;99.90
46676;DHT22;32412;51.478;5.694;2022-12-18T11:01:23;-0.70;99.90
46676;DHT22;32412;51.478;5.694;2022-12-18T11:06:18;-0.70;99.90
46676;DHT22;32412;51.478;5.694;2022-12-18T11:09:00;-0.80;99.90
46676;DHT22;32412;51.478;5.694;2022-12-18T11:11:26;-0.80;99.90
46676;DHT22;32412;51.478;5.694;2022-12-18T11:14:00;-0.80;99.90
46676;DHT22;32412;51.478;5.694;2022-12-18T11:16:27;-0.80;99.90
46676;DHT22;32412;51.478;5.694;2022-12-18T11:18:53;-0.80;99.90
46676;DHT22;32412;51.478;5.694;2022-12-18T11:21:18;-0.80;99.90
46676;DHT22;32412;51.478;5.694;2022-12-18T11:23:50;-0.90;99.90
46676;DHT22;32412;51.478;5.694;2022-12-18T11:26:16;-0.80;99.90
46676;DHT22;32412;51.478;5.694;2022-12-18T11:28:49;-0.80;99.90
46676;DHT22;32412;51.478;5.694;2022-12-18T11:33:42;-0.70;99.90
46676;DHT22;32412;51.478;5.694;2022-12-18T11:36:09;-0.70;99.90
46676;DHT22;32412;51.478;5.694;2022-12-18T11:38:36;-0.70;99.90
46676;DHT22;32412;51.478;5.694;2022-12-18T11:41:04;-0.70;99.90
46676;DHT22;32412;51.478;5.694;2022-12-18T11:46:17;-0.60;99.90
46676;DHT22;32412;51.478;5.694;2022-12-18T11:48:45;-0.50;99.90
46676;DHT22;32412;51.478;5.694;2022-12-18T11:51:14;-0.40;99.90
46676;DHT22;32412;51.478;5.694;2022-12-18T11:53:44;-0.40;99.90
46676;DHT22;32412;51.478;5.694;2022-12-18T11:56:44;-0.50;99.90
46676;DHT22;32412;51.478;5.694;2022-12-18T11:59:09;-0.50;99.90
46676;DHT22;32412;51.478;5.694;2022-12-18T12:02:03;-0.40;99.90
46676;DHT22;32412;51.478;5.694;2022-12-18T12:04:43;-0.40;99.90
46676;DHT22;32412;51.478;5.694;2022-12-18T12:12:47;-0.30;99.90
46676;DHT22;32412;51.478;5.694;2022-12-18T12:15:26;-0.10;99.90
46676;DHT22;32412;51.478;5.694;2022-12-18T12:17:57;-0.20;99.90
46676;DHT22;32412;51.478;5.694;2022-12-18T12:23:14;-0.20;99.90
46676;DHT22;32412;51.478;5.694;2022-12-18T12:25:46;-0.20;99.90
46676;DHT22;32412;51.478;5.694;2022-12-18T12:31:05;-0.20;99.90
46676;DHT22;32412;51.478;5.694;2022-12-18T12:38:47;-0.10;99.90
46676;DHT22;32412;51.478;5.694;2022-12-18T12:41:17;-0.10;99.90
46676;DHT22;32412;51.478;5.694;2022-12-18T12:44:03;0.00;99.90
46676;DHT22;32412;51.478;5.694;2022-12-18T12:46:29;0.00;99.90
46676;DHT22;32412;51.478;5.694;2022-12-18T12:48:56;0.10;99.90
46676;DHT22;32412;51.478;5.694;2022-12-18T12:51:43;0.10;99.90
46676;DHT22;32412;51.478;5.694;2022-12-18T12:54:30;0.10;99.90
46676;DHT22;32412;51.478;5.694;2022-12-18T12:56:57;0.10;99.90
46676;DHT22;32412;51.478;5.694;2022-12-18T13:02:05;0.10;99.90
46676;DHT22;32412;51.478;5.694;2022-12-18T13:04:34;0.20;99.90
46676;DHT22;32412;51.478;5.694;2022-12-18T13:09:31;0.20;99.90
46676;DHT22;32412;51.478;5.694;2022-12-18T13:12:01;0.20;99.90
46676;DHT22;32412;51.478;5.694;2022-12-18T13:14:46;0.30;99.90
46676;DHT22;32412;51.478;5.694;2022-12-18T13:19:49;0.20;99.90
46676;DHT22;32412;51.478;5.694;2022-12-18T13:22:23;0.20;99.90
46676;DHT22;32412;51.478;5.694;2022-12-18T13:24:49;0.20;99.90
46676;DHT22;32412;51.478;5.694;2022-12-18T13:29:59;0.10;99.90
46676;DHT22;32412;51.478;5.694;2022-12-18T13:32:25;0.10;99.90
46676;DHT22;32412;51.478;5.694;2022-12-18T13:37:42;0.10;99.90
46676;DHT22;32412;51.478;5.694;2022-12-18T13:42:52;0.10;99.90
46676;DHT22;32412;51.478;5.694;2022-12-18T13:45:48;0.10;99.90
46676;DHT22;32412;51.478;5.694;2022-12-18T13:48:18;0.00;99.90
46676;DHT22;32412;51.478;5.694;2022-12-18T13:50:56;0.10;99.90
46676;DHT22;32412;51.478;5.694;2022-12-18T13:53:24;0.10;99.90
46676;DHT22;32412;51.478;5.694;2022-12-18T13:55:51;0.10;99.90
46676;DHT22;32412;51.478;5.694;2022-12-18T13:58:16;0.20;99.90
46676;DHT22;32412;51.478;5.694;2022-12-18T14:00:42;0.20;99.90
46676;DHT22;32412;51.478;5.694;2022-12-18T14:03:18;0.10;99.90
46676;DHT22;32412;51.478;5.694;2022-12-18T14:05:44;0.20;99.90
46676;DHT22;32412;51.478;5.694;2022-12-18T14:08:12;0.20;99.90
46676;DHT22;32412;51.478;5.694;2022-12-18T14:10:42;0.20;99.90
46676;DHT22;32412;51.478;5.694;2022-12-18T14:13:09;0.20;99.90
46676;DHT22;32412;51.478;5.694;2022-12-18T14:15:36;0.20;99.90
46676;DHT22;32412;51.478;5.694;2022-12-18T14:18:21;0.30;99.90
46676;DHT22;32412;51.478;5.694;2022-12-18T14:20:48;0.20;99.90
46676;DHT22;32412;51.478;5.694;2022-12-18T14:23:27;0.20;99.90
46676;DHT22;32412;51.478;5.694;2022-12-18T14:25:53;0.20;99.90
46676;DHT22;32412;51.478;5.694;2022-12-18T14:28:18;0.30;99.90
46676;DHT22;32412;51.478;5.694;2022-12-18T14:30:45;0.20;99.90
46676;DHT22;32412;51.478;5.694;2022-12-18T14:33:12;0.20;99.90
46676;DHT22;32412;51.478;5.694;2022-12-18T14:35:39;0.20;99.90
46676;DHT22;32412;51.478;5.694;2022-12-18T14:38:17;0.20;99.90
46676;DHT22;32412;51.478;5.694;2022-12-18T14:40:44;0.20;99.90
46676;DHT22;32412;51.478;5.694;2022-12-18T14:43:10;0.20;99.90
46676;DHT22;32412;51.478;5.694;2022-12-18T14:45:37;0.20;99.90
46676;DHT22;32412;51.478;5.694;2022-12-18T14:48:13;0.20;99.90
46676;DHT22;32412;51.478;5.694;2022-12-18T14:50:40;0.20;99.90
46676;DHT22;32412;51.478;5.694;2022-12-18T14:53:06;0.20;99.90
46676;DHT22;32412;51.478;5.694;2022-12-18T14:55:31;0.20;99.90
46676;DHT22;32412;51.478;5.694;2022-12-18T14:57:57;0.20;99.90
46676;DHT22;32412;51.478;5.694;2022-12-18T15:00:24;0.20;99.90
46676;DHT22;32412;51.478;5.694;2022-12-18T15:02:53;0.20;99.90
46676;DHT22;32412;51.478;5.694;2022-12-18T15:07:49;0.10;99.90
46676;DHT22;32412;51.478;5.694;2022-12-18T15:10:16;0.10;99.90
46676;DHT22;32412;51.478;5.694;2022-12-18T15:20:27;0.10;99.90
46676;DHT22;32412;51.478;5.694;2022-12-18T15:22:53;0.10;99.90
46676;DHT22;32412;51.478;5.694;2022-12-18T15:25:40;0.10;99.90
46676;DHT22;32412;51.478;5.694;2022-12-18T15:28:15;0.10;99.90
46676;DHT22;32412;51.478;5.694;2022-12-18T15:30:53;0.10;99.90
46676;DHT22;32412;51.478;5.694;2022-12-18T15:33:27;0.10;99.90
46676;DHT22;32412;51.478;5.694;2022-12-18T15:35:58;0.10;99.90
46676;DHT22;32412;51.478;5.694;2022-12-18T15:38:24;0.10;99.90
46676;DHT22;32412;51.478;5.694;2022-12-18T15:40:50;0.10;99.90
46676;DHT22;32412;51.478;5.694;2022-12-18T15:43:15;0.10;99.90
46676;DHT22;32412;51.478;5.694;2022-12-18T15:46:03;0.10;99.90
46676;DHT22;32412;51.478;5.694;2022-12-18T15:48:29;0.00;99.90
46676;DHT22;32412;51.478;5.694;2022-12-18T15:50:55;0.00;99.90
46676;DHT22;32412;51.478;5.694;2022-12-18T15:53:22;0.10;99.90
46676;DHT22;32412;51.478;5.694;2022-12-18T15:55:48;0.10;99.90
46676;DHT22;32412;51.478;5.694;2022-12-18T15:58:33;0.10;99.90
46676;DHT22;32412;51.478;5.694;2022-12-18T16:00:59;0.10;99.90
46676;DHT22;32412;51.478;5.694;2022-12-18T16:03:25;0.10;99.90
46676;DHT22;32412;51.478;5.694;2022-12-18T16:05:50;0.10;99.90
46676;DHT22;32412;51.478;5.694;2022-12-18T16:08:16;0.10;99.90
46676;DHT22;32412;51.478;5.694;2022-12-18T16:10:41;0.10;99.90
46676;DHT22;32412;51.478;5.694;2022-12-18T16:13:10;0.00;99.90
46676;DHT22;32412;51.478;5.694;2022-12-18T16:15:36;0.10;99.90
46676;DHT22;32412;51.478;5.694;2022-12-18T16:18:01;0.00;99.90
46676;DHT22;32412;51.478;5.694;2022-12-18T16:20:27;0.10;99.90
46676;DHT22;32412;51.478;5.694;2022-12-18T16:22:52;0.00;99.90
46676;DHT22;32412;51.478;5.694;2022-12-18T16:25:27;0.00;99.90
46676;DHT22;32412;51.478;5.694;2022-12-18T16:27:53;0.00;99.90
46676;DHT22;32412;51.478;5.694;2022-12-18T16:30:21;0.00;99.90
46676;DHT22;32412;51.478;5.694;2022-12-18T16:32:47;0.10;99.90
46676;DHT22;32412;51.478;5.694;2022-12-18T16:35:13;0.10;99.90
46676;DHT22;32412;51.478;5.694;2022-12-18T16:37:39;0.10;99.90
46676;DHT22;32412;51.478;5.694;2022-12-18T16:40:06;0.10;99.90
46676;DHT22;32412;51.478;5.694;2022-12-18T16:42:34;0.10;99.90
46676;DHT22;32412;51.478;5.694;2022-12-18T16:45:00;0.10;99.90
46676;DHT22;32412;51.478;5.694;2022-12-18T16:47:25;0.00;99.90
46676;DHT22;32412;51.478;5.694;2022-12-18T16:49:51;0.10;99.90
46676;DHT22;32412;51.478;5.694;2022-12-18T16:52:17;0.10;99.90
46676;DHT22;32412;51.478;5.694;2022-12-18T16:54:43;0.10;99.90
46676;DHT22;32412;51.478;5.694;2022-12-18T16:57:10;0.00;99.90
46676;DHT22;32412;51.478;5.694;2022-12-18T16:59:37;0.00;99.90
46676;DHT22;32412;51.478;5.694;2022-12-18T17:02:02;0.00;99.90
46676;DHT22;32412;51.478;5.694;2022-12-18T17:04:28;0.00;99.90